createdAt,value
2022-10-02T00:00:47.232Z,4.97
2022-10-02T00:03:21.936Z,5.75
2022-10-02T00:05:51.145Z,3.30
2022-10-02T00:08:26.014Z,4.55
2022-10-02T00:10:55.991Z,5.22
2022-10-02T00:13:29.320Z,7.10
2022-10-02T00:15:57.114Z,5.10
2022-10-02T00:18:30.837Z,7.03
2022-10-02T00:21:04.581Z,8.02
2022-10-02T00:23:34.755Z,4.05
2022-10-02T00:26:06.385Z,6.63
2022-10-02T00:28:56.904Z,5.75
2022-10-02T00:31:24.276Z,7.05
2022-10-02T00:33:59.288Z,2.83
2022-10-02T00:37:05.124Z,6.97
2022-10-02T00:39:45.148Z,5.07
2022-10-02T00:42:33.793Z,6.05
2022-10-02T00:45:24.971Z,6.78
2022-10-02T00:47:52.289Z,4.53
2022-10-02T00:50:28.588Z,6.07
2022-10-02T00:52:56.879Z,5.85
2022-10-02T00:55:30.774Z,6.45
2022-10-02T00:58:11.569Z,4.57
2022-10-02T01:00:40.574Z,3.70
2022-10-02T01:03:23.741Z,3.63
2022-10-02T01:05:51.243Z,3.83
2022-10-02T01:08:18.592Z,5.72
2022-10-02T01:10:46.262Z,3.20
2022-10-02T01:13:13.676Z,4.18
2022-10-02T01:15:54.907Z,4.82
2022-10-02T01:18:22.423Z,2.83
2022-10-02T01:20:51.210Z,3.10
2022-10-02T01:23:29.289Z,4.03
2022-10-02T01:25:56.670Z,2.97
2022-10-02T01:28:24.234Z,3.13
2022-10-02T01:30:53.833Z,4.22
2022-10-02T01:33:21.120Z,2.58
2022-10-02T01:35:48.952Z,3.70
2022-10-02T01:38:18.262Z,4.53
2022-10-02T01:40:45.946Z,4.93
2022-10-02T01:43:15.528Z,3.22
2022-10-02T01:45:46.049Z,3.50
2022-10-02T01:48:16.483Z,7.38
2022-10-02T01:50:49.409Z,4.78
2022-10-02T01:53:36.936Z,6.72
2022-10-02T01:56:20.196Z,4.45
2022-10-02T01:58:50.704Z,3.90
2022-10-02T02:01:24.167Z,4.65
2022-10-02T02:03:57.659Z,5.68
2022-10-02T02:06:37.069Z,3.05
2022-10-02T02:09:11.050Z,4.88
2022-10-02T02:11:41.894Z,4.47
2022-10-02T02:14:11.969Z,5.47
2022-10-02T02:16:46.928Z,3.40
2022-10-02T02:19:14.269Z,5.43
2022-10-02T02:21:43.445Z,10.35
2022-10-02T02:24:33.878Z,7.15
2022-10-02T02:27:02.447Z,5.55
2022-10-02T02:29:32.180Z,4.18
2022-10-02T02:32:00.531Z,5.18
2022-10-02T02:34:35.862Z,7.03
2022-10-02T02:37:05.691Z,5.53
2022-10-02T02:39:38.217Z,6.43
2022-10-02T02:42:07.713Z,3.85
2022-10-02T02:44:39.288Z,3.38
2022-10-02T02:47:21.936Z,6.32
2022-10-02T02:49:51.991Z,3.40
2022-10-02T02:52:26.281Z,5.22
2022-10-02T02:54:57.400Z,4.75
2022-10-02T02:57:28.033Z,3.92
2022-10-02T02:59:57.349Z,3.47
2022-10-02T03:02:24.932Z,9.10
2022-10-02T03:04:52.365Z,4.97
2022-10-02T03:07:19.768Z,6.60
2022-10-02T03:09:56.693Z,3.92
2022-10-02T03:12:24.012Z,7.47
2022-10-02T03:15:00.469Z,6.10
2022-10-02T03:17:36.948Z,5.07
2022-10-02T03:20:11.930Z,3.20
2022-10-02T03:23:05.494Z,7.53
2022-10-02T03:25:51.290Z,5.65
2022-10-02T03:28:50.603Z,5.47
2022-10-02T03:31:13.276Z,10.38
2022-10-02T03:33:41.513Z,6.03
2022-10-02T03:36:11.217Z,7.82
2022-10-02T03:38:39.724Z,12.82
2022-10-02T03:41:07.139Z,5.90
2022-10-02T03:43:34.535Z,7.60
2022-10-02T03:46:01.880Z,6.07
2022-10-02T03:48:29.218Z,8.38
2022-10-02T03:50:56.585Z,12.60
2022-10-02T03:53:25.654Z,6.35
2022-10-02T03:56:03.837Z,4.78
2022-10-02T03:58:31.419Z,7.97
2022-10-02T04:00:59.068Z,10.00
2022-10-02T04:03:35.787Z,6.40
2022-10-02T04:06:06.084Z,5.60
2022-10-02T04:08:55.284Z,5.82
2022-10-02T04:11:33.698Z,6.00
2022-10-02T04:14:07.320Z,9.93
2022-10-02T04:16:39.512Z,9.50
2022-10-02T04:19:13.218Z,11.93
2022-10-02T04:21:44.604Z,7.45
2022-10-02T04:24:17.817Z,9.30
2022-10-02T04:26:48.321Z,11.23
2022-10-02T04:29:24.712Z,7.82
2022-10-02T04:31:55.130Z,8.68
2022-10-02T04:34:22.706Z,8.85
2022-10-02T04:36:49.973Z,8.85
2022-10-02T04:39:30.307Z,8.75
2022-10-02T04:42:02.753Z,7.00
2022-10-02T04:44:48.703Z,7.72
2022-10-02T04:47:22.044Z,9.13
2022-10-02T04:49:50.047Z,4.15
2022-10-02T04:52:17.486Z,5.85
2022-10-02T04:55:03.898Z,8.93
2022-10-02T04:57:50.115Z,6.68
2022-10-02T05:00:27.877Z,7.32
2022-10-02T05:03:16.730Z,6.47
2022-10-02T05:06:11.472Z,6.53
2022-10-02T05:08:39.079Z,10.98
2022-10-02T05:11:09.392Z,8.70
2022-10-02T05:13:42.434Z,8.02
2022-10-02T05:16:28.777Z,9.40
2022-10-02T05:19:08.189Z,5.38
2022-10-02T05:21:47.396Z,7.05
2022-10-02T05:24:35.015Z,7.50
2022-10-02T05:27:17.930Z,8.45
2022-10-02T05:30:05.004Z,8.38
2022-10-02T05:32:42.875Z,10.95
2022-10-02T05:35:31.997Z,7.07
2022-10-02T05:38:03.586Z,8.43
2022-10-02T05:40:33.801Z,12.75
2022-10-02T05:43:23.454Z,11.77
2022-10-02T05:45:56.645Z,6.93
2022-10-02T05:48:32.903Z,13.18
2022-10-02T05:51:02.670Z,14.35
2022-10-02T05:53:36.556Z,11.80
2022-10-02T05:56:12.668Z,12.35
2022-10-02T05:58:47.688Z,14.05
2022-10-02T06:01:21.974Z,10.32
2022-10-02T06:03:52.850Z,9.85
2022-10-02T06:06:20.104Z,9.30
2022-10-02T06:08:50.217Z,10.80
2022-10-02T06:11:29.674Z,10.10
2022-10-02T06:14:01.652Z,10.77
2022-10-02T06:16:42.127Z,14.93
2022-10-02T06:19:13.429Z,10.25
2022-10-02T06:21:59.164Z,17.55
2022-10-02T06:24:29.346Z,8.38
2022-10-02T06:27:03.408Z,8.27
2022-10-02T06:29:30.767Z,16.17
2022-10-02T06:32:00.823Z,12.65
2022-10-02T06:34:29.200Z,10.43
2022-10-02T06:37:19.615Z,11.73
2022-10-02T06:39:58.738Z,16.70
2022-10-02T06:42:42.586Z,14.50
2022-10-02T06:45:28.424Z,9.45
2022-10-02T06:48:05.984Z,13.60
2022-10-02T06:50:36.238Z,8.85
2022-10-02T06:53:23.067Z,15.88
2022-10-02T06:55:53.231Z,12.18
2022-10-02T06:58:22.013Z,15.10
2022-10-02T07:01:07.951Z,10.50
2022-10-02T07:03:52.022Z,8.30
2022-10-02T07:06:36.350Z,9.55
2022-10-02T07:09:06.853Z,9.80
2022-10-02T07:11:43.371Z,8.90
2022-10-02T07:14:30.599Z,11.85
2022-10-02T07:17:21.536Z,13.07
2022-10-02T07:20:10.328Z,9.40
2022-10-02T07:22:56.592Z,28.13
2022-10-02T07:25:36.277Z,12.45
2022-10-02T07:28:10.720Z,14.95
2022-10-02T07:30:48.039Z,29.55
2022-10-02T07:33:23.556Z,18.10
2022-10-02T07:36:03.575Z,27.70
2022-10-02T07:38:47.388Z,14.52
2022-10-02T07:41:20.792Z,10.32
2022-10-02T07:43:54.239Z,18.15
2022-10-02T07:46:21.562Z,12.25
2022-10-02T07:48:55.101Z,10.52
2022-10-02T07:51:47.691Z,9.88
2022-10-02T07:54:35.029Z,10.98
2022-10-02T07:57:21.499Z,13.35
2022-10-02T07:59:52.119Z,13.75
2022-10-02T08:02:35.741Z,12.48
2022-10-02T08:05:04.915Z,13.10
2022-10-02T08:07:32.789Z,11.60
2022-10-02T08:10:03.728Z,11.25
2022-10-02T08:13:07.290Z,11.00
2022-10-02T08:15:36.629Z,12.95
2022-10-02T08:18:33.742Z,13.05
2022-10-02T08:21:02.894Z,12.55
2022-10-02T08:23:34.299Z,13.20
2022-10-02T08:26:16.333Z,15.10
2022-10-02T08:29:08.940Z,17.02
2022-10-02T08:31:36.936Z,11.13
2022-10-02T08:34:13.430Z,13.73
2022-10-02T08:37:00.010Z,12.55
2022-10-02T08:39:30.361Z,14.68
2022-10-02T08:42:10.592Z,15.13
2022-10-02T08:44:47.204Z,15.85
2022-10-02T08:47:23.840Z,8.35
2022-10-02T08:50:00.250Z,8.55
2022-10-02T08:52:54.393Z,7.05
2022-10-02T08:55:31.310Z,14.45
2022-10-02T08:58:17.272Z,11.77
2022-10-02T09:00:55.695Z,10.82
2022-10-02T09:03:44.987Z,12.73
2022-10-02T09:06:24.909Z,10.05
2022-10-02T09:08:58.470Z,11.85
2022-10-02T09:11:25.911Z,12.32
2022-10-02T09:14:10.275Z,11.90
2022-10-02T09:16:38.468Z,10.88
2022-10-02T09:19:12.609Z,12.43
2022-10-02T09:21:42.801Z,12.15
2022-10-02T09:24:30.091Z,10.60
2022-10-02T09:27:01.043Z,8.57
2022-10-02T09:29:41.247Z,8.75
2022-10-02T09:32:27.764Z,9.73
2022-10-02T09:35:15.124Z,10.43
2022-10-02T09:37:59.731Z,8.77
2022-10-02T09:40:33.414Z,14.07
2022-10-02T09:43:00.920Z,8.35
2022-10-02T09:45:47.175Z,15.25
2022-10-02T09:48:30.847Z,13.02
2022-10-02T09:51:10.609Z,12.05
2022-10-02T09:53:47.125Z,19.08
2022-10-02T09:56:39.411Z,17.63
2022-10-02T09:59:26.067Z,22.15
2022-10-02T10:02:12.062Z,14.32
2022-10-02T10:05:04.438Z,15.15
2022-10-02T10:07:41.938Z,16.20
2022-10-02T10:10:27.750Z,13.60
2022-10-02T10:13:04.351Z,14.25
2022-10-02T10:15:35.219Z,13.43
2022-10-02T10:18:12.547Z,8.82
2022-10-02T10:20:46.572Z,12.13
2022-10-02T10:23:39.889Z,9.95
2022-10-02T10:26:22.842Z,9.93
2022-10-02T10:28:56.402Z,7.95
2022-10-02T10:31:27.067Z,9.25
2022-10-02T10:34:02.848Z,9.52
2022-10-02T10:36:52.301Z,7.85
2022-10-02T10:39:38.492Z,13.98
2022-10-02T10:42:24.492Z,10.52
2022-10-02T10:45:10.787Z,11.30
2022-10-02T10:47:56.722Z,7.43
2022-10-02T10:50:27.339Z,5.25
2022-10-02T10:53:13.460Z,10.35
2022-10-02T10:55:59.709Z,9.40
2022-10-02T10:58:27.075Z,7.18
2022-10-02T11:01:04.164Z,8.80
2022-10-02T11:03:34.614Z,10.57
2022-10-02T11:06:28.434Z,10.30
2022-10-02T11:09:14.306Z,10.38
2022-10-02T11:12:17.063Z,10.93
2022-10-02T11:14:47.485Z,13.52
2022-10-02T11:17:33.316Z,9.45
2022-10-02T11:20:03.969Z,17.02
2022-10-02T11:22:31.234Z,13.63
2022-10-02T11:25:12.824Z,17.92
2022-10-02T11:27:40.574Z,13.73
2022-10-02T11:30:20.802Z,14.90
2022-10-02T11:33:02.831Z,11.60
2022-10-02T11:35:36.269Z,15.73
2022-10-02T11:38:13.212Z,7.93
2022-10-02T11:40:59.640Z,14.38
2022-10-02T11:43:30.191Z,8.93
2022-10-02T11:46:03.976Z,11.75
2022-10-02T11:48:50.023Z,12.93
2022-10-02T11:51:26.993Z,10.50
2022-10-02T11:54:03.385Z,7.72
2022-10-02T11:56:53.559Z,8.57
2022-10-02T11:59:30.761Z,10.25
2022-10-02T12:02:16.768Z,7.45
2022-10-02T12:05:06.089Z,12.07
2022-10-02T12:07:49.156Z,9.73
2022-10-02T12:10:35.795Z,9.13
2022-10-02T12:13:21.799Z,8.45
2022-10-02T12:15:49.177Z,7.22
2022-10-02T12:18:36.380Z,10.02
2022-10-02T12:21:22.262Z,9.48
2022-10-02T12:24:08.209Z,12.07
2022-10-02T12:26:59.865Z,8.15
2022-10-02T12:29:30.167Z,13.27
2022-10-02T12:32:08.553Z,7.75
2022-10-02T12:34:35.841Z,11.65
2022-10-02T12:37:09.170Z,9.32
2022-10-02T12:39:36.743Z,11.30
2022-10-02T12:42:31.110Z,10.63
2022-10-02T12:44:58.467Z,6.43
2022-10-02T12:47:31.897Z,14.63
2022-10-02T12:49:59.841Z,9.70
2022-10-02T12:52:45.784Z,11.85
2022-10-02T12:55:25.458Z,6.15
2022-10-02T12:58:05.403Z,9.13
2022-10-02T13:00:51.205Z,9.95
2022-10-02T13:03:30.981Z,8.70
2022-10-02T13:05:58.463Z,7.40
2022-10-02T13:08:31.813Z,8.63
2022-10-02T13:10:59.409Z,6.57
2022-10-02T13:13:36.358Z,7.22
2022-10-02T13:16:13.034Z,9.75
2022-10-02T13:18:58.928Z,5.65
2022-10-02T13:21:26.890Z,5.93
2022-10-02T13:23:54.692Z,6.63
2022-10-02T13:26:25.392Z,8.48
2022-10-02T13:29:10.899Z,7.15
2022-10-02T13:34:25.606Z,5.40
2022-10-02T13:37:14.234Z,6.88
2022-10-02T13:39:41.654Z,8.13
2022-10-02T13:42:14.938Z,8.55
2022-10-02T13:44:49.003Z,4.47
2022-10-02T13:47:25.508Z,8.25
2022-10-02T13:49:54.501Z,10.80
2022-10-02T13:52:22.143Z,5.75
2022-10-02T13:55:13.418Z,4.75
2022-10-02T13:58:03.931Z,5.35
2022-10-02T14:00:40.441Z,8.43
2022-10-02T14:03:13.972Z,14.65
2022-10-02T14:05:44.443Z,8.63
2022-10-02T14:08:21.375Z,7.47
2022-10-02T14:11:02.444Z,7.53
2022-10-02T14:13:46.036Z,21.35
2022-10-02T14:16:25.726Z,6.88
2022-10-02T14:18:56.145Z,6.00
2022-10-02T14:21:31.259Z,4.25
2022-10-02T14:26:29.088Z,3.42
2022-10-02T14:29:07.727Z,4.03
2022-10-02T14:31:42.988Z,5.60
2022-10-02T14:34:14.116Z,7.88
2022-10-02T14:36:53.771Z,4.47
2022-10-02T14:39:21.068Z,9.88
2022-10-02T14:42:07.263Z,8.30
2022-10-02T14:44:59.181Z,7.55
2022-10-02T14:47:46.345Z,5.13
2022-10-02T14:50:19.073Z,7.22
2022-10-02T14:52:53.943Z,7.95
2022-10-02T14:55:26.502Z,4.47
2022-10-02T14:57:54.051Z,4.85
2022-10-02T15:00:25.399Z,4.32
2022-10-02T15:02:52.834Z,5.07
2022-10-02T15:05:21.365Z,3.78
2022-10-02T15:07:48.859Z,3.05
2022-10-02T15:10:22.161Z,6.45
2022-10-02T15:13:03.579Z,4.45
2022-10-02T15:16:13.091Z,9.95
2022-10-02T15:18:59.185Z,4.82
2022-10-02T15:21:32.984Z,6.82
2022-10-02T15:24:18.366Z,6.93
2022-10-02T15:26:57.749Z,6.15
2022-10-02T15:29:48.471Z,8.35
2022-10-02T15:32:21.938Z,6.43
2022-10-02T15:34:55.412Z,6.72
2022-10-02T15:37:39.970Z,2.30
2022-10-02T15:40:13.189Z,13.90
2022-10-02T15:42:49.894Z,6.20
2022-10-02T15:45:22.754Z,5.47
2022-10-02T15:47:54.717Z,6.97
2022-10-02T15:50:49.131Z,7.20
2022-10-02T15:53:26.942Z,5.57
2022-10-02T15:55:54.883Z,13.55
2022-10-02T15:58:27.071Z,6.85
2022-10-02T16:01:02.579Z,8.20
2022-10-02T16:03:38.115Z,6.30
2022-10-02T16:06:14.867Z,12.20
2022-10-02T16:09:04.151Z,7.50
2022-10-02T16:11:44.040Z,5.75
2022-10-02T16:14:15.992Z,7.55
2022-10-02T16:17:02.331Z,8.95
2022-10-02T16:19:33.449Z,8.05
2022-10-02T16:22:00.806Z,7.95
2022-10-02T16:24:50.881Z,6.70
2022-10-02T16:27:24.353Z,17.33
2022-10-02T16:30:00.990Z,10.85
2022-10-02T16:32:29.145Z,16.55
2022-10-02T16:34:56.437Z,13.10
2022-10-02T16:37:29.454Z,15.10
2022-10-02T16:40:03.336Z,13.73
2022-10-02T16:42:33.727Z,18.88
2022-10-02T16:45:16.671Z,11.23
2022-10-02T16:47:51.833Z,6.78
2022-10-02T16:52:53.798Z,9.43
2022-10-02T16:55:24.090Z,5.55
2022-10-02T16:58:00.690Z,11.52
2022-10-02T17:01:05.323Z,9.20
2022-10-02T17:03:35.482Z,5.13
2022-10-02T17:06:05.643Z,6.70
2022-10-02T17:08:42.385Z,25.95
2022-10-02T17:11:35.947Z,7.80
2022-10-02T17:14:19.965Z,9.90
2022-10-02T17:16:53.541Z,11.15
2022-10-02T17:19:20.942Z,8.15
2022-10-02T17:21:51.308Z,7.72
2022-10-02T17:24:41.958Z,7.15
2022-10-02T17:27:12.252Z,5.57
2022-10-02T17:30:00.614Z,4.20
2022-10-02T17:33:02.237Z,2.80
2022-10-02T17:35:35.691Z,8.75
2022-10-02T17:38:03.600Z,9.25
2022-10-02T17:40:30.859Z,15.32
2022-10-02T17:43:04.422Z,12.63
2022-10-02T17:45:37.920Z,7.20
2022-10-02T17:48:24.331Z,13.10
2022-10-02T17:50:55.726Z,12.38
2022-10-02T17:53:56.293Z,11.88
2022-10-02T17:56:39.063Z,11.85
2022-10-02T18:02:36.346Z,7.00
2022-10-02T18:05:21.773Z,6.50
2022-10-02T18:07:50.245Z,3.63
2022-10-02T18:10:17.579Z,4.25
2022-10-02T18:13:11.259Z,5.00
2022-10-02T18:15:44.030Z,6.38
2022-10-02T18:18:23.694Z,3.17
2022-10-02T18:21:12.291Z,5.47
2022-10-02T18:23:42.938Z,7.05
2022-10-02T18:26:14.347Z,3.22
2022-10-02T18:28:54.229Z,4.07
2022-10-02T18:31:54.199Z,4.40
2022-10-02T18:34:31.790Z,4.07
2022-10-02T18:37:11.853Z,3.33
2022-10-02T18:40:07.322Z,4.15
2022-10-02T18:42:41.106Z,2.70
2022-10-02T18:45:43.943Z,2.53
2022-10-02T18:48:20.704Z,2.38
2022-10-02T18:50:55.332Z,4.13
2022-10-02T18:53:23.154Z,6.00
2022-10-02T18:55:52.256Z,4.00
2022-10-02T18:58:29.572Z,4.75
2022-10-02T19:01:03.298Z,3.72
2022-10-02T19:03:33.769Z,3.58
2022-10-02T19:06:19.594Z,1.77
2022-10-02T19:09:06.892Z,2.50
2022-10-02T19:11:36.325Z,3.10
2022-10-02T19:14:24.202Z,5.13
2022-10-02T19:16:59.144Z,3.50
2022-10-02T19:19:30.531Z,4.20
2022-10-02T19:22:11.333Z,4.85
2022-10-02T19:24:40.592Z,7.63
2022-10-02T19:27:10.196Z,7.47
2022-10-02T19:29:43.025Z,4.25
2022-10-02T19:32:21.787Z,10.98
2022-10-02T19:34:50.669Z,9.57
2022-10-02T19:37:19.145Z,8.63
2022-10-02T19:40:08.979Z,5.90
2022-10-02T19:42:46.288Z,9.30
2022-10-02T19:45:25.673Z,13.25
2022-10-02T19:47:58.004Z,13.98
2022-10-02T19:50:44.920Z,7.88
2022-10-02T19:53:42.660Z,4.18
2022-10-02T19:56:15.197Z,3.35
2022-10-02T19:58:47.586Z,3.05
2022-10-02T20:01:27.519Z,3.95
2022-10-02T20:04:01.679Z,3.00
2022-10-02T20:06:34.409Z,2.83
2022-10-02T20:09:17.418Z,7.70
2022-10-02T20:11:47.261Z,5.20
2022-10-02T20:14:26.974Z,3.97
2022-10-02T20:17:09.771Z,4.30
2022-10-02T20:19:55.679Z,3.55
2022-10-02T20:22:34.887Z,5.03
2022-10-02T20:25:06.645Z,4.55
2022-10-02T20:27:40.692Z,2.83
2022-10-02T20:30:18.073Z,3.78
2022-10-02T20:32:48.406Z,2.80
2022-10-02T20:35:18.892Z,7.53
2022-10-02T20:37:49.524Z,4.10
2022-10-02T20:40:23.226Z,4.40
2022-10-02T20:42:50.749Z,6.35
2022-10-02T20:45:18.385Z,5.20
2022-10-02T20:48:04.263Z,3.20
2022-10-02T20:50:34.932Z,4.18
2022-10-02T20:53:21.866Z,4.18
2022-10-02T20:55:49.236Z,5.97
2022-10-02T20:58:25.660Z,7.95
2022-10-02T21:01:05.415Z,8.77
2022-10-02T21:03:33.082Z,11.77
2022-10-02T21:06:19.422Z,9.65
2022-10-02T21:08:54.013Z,12.65
2022-10-02T21:11:45.683Z,14.90
2022-10-02T21:14:32.328Z,8.02
2022-10-02T21:16:59.908Z,5.82
2022-10-02T21:19:45.724Z,4.80
2022-10-02T21:22:16.365Z,5.15
2022-10-02T21:25:07.409Z,6.60
2022-10-02T21:27:38.254Z,4.82
2022-10-02T21:30:16.145Z,5.35
2022-10-02T21:32:51.321Z,5.60
2022-10-02T21:35:32.340Z,4.45
2022-10-02T21:38:23.835Z,5.15
2022-10-02T21:40:57.551Z,4.10
2022-10-02T21:43:44.669Z,6.50
2022-10-02T21:46:30.796Z,4.22
2022-10-02T21:49:08.576Z,5.40
2022-10-02T21:51:39.014Z,5.72
2022-10-02T21:54:36.577Z,7.03
2022-10-02T21:57:03.910Z,4.45
2022-10-02T21:59:46.968Z,5.05
2022-10-02T22:02:14.631Z,4.65
2022-10-02T22:05:10.472Z,3.80
2022-10-02T22:07:37.936Z,5.10
2022-10-02T22:10:13.395Z,5.07
2022-10-02T22:12:56.573Z,4.57
2022-10-02T22:15:32.097Z,4.90
2022-10-02T22:18:22.754Z,5.30
2022-10-02T22:20:59.671Z,6.45
2022-10-02T22:23:33.583Z,7.47
2022-10-02T22:26:00.951Z,12.00
2022-10-02T22:28:49.094Z,16.90
2022-10-02T22:31:28.740Z,20.35
2022-10-02T22:33:57.559Z,17.20
2022-10-02T22:36:32.286Z,16.65
2022-10-02T22:39:08.080Z,14.95
2022-10-02T22:41:40.550Z,14.15
2022-10-02T22:44:08.161Z,17.20
2022-10-02T22:46:40.893Z,21.98
2022-10-02T22:49:28.664Z,18.58
2022-10-02T22:52:20.271Z,10.77
2022-10-02T22:54:47.628Z,13.85
2022-10-02T22:57:32.017Z,11.15
2022-10-02T23:00:11.393Z,8.68
2022-10-02T23:02:59.336Z,12.55
2022-10-02T23:05:31.661Z,10.07
2022-10-02T23:08:21.985Z,7.88
2022-10-02T23:11:02.288Z,11.75
2022-10-02T23:13:34.242Z,10.65
2022-10-02T23:16:24.642Z,13.10
2022-10-02T23:19:18.513Z,8.25
2022-10-02T23:21:54.506Z,12.50
2022-10-02T23:24:30.791Z,20.67
2022-10-02T23:26:59.299Z,11.23
2022-10-02T23:29:29.035Z,13.93
2022-10-02T23:32:09.852Z,11.40
2022-10-02T23:34:40.241Z,11.73
2022-10-02T23:37:16.824Z,12.50
2022-10-02T23:39:48.439Z,8.20
2022-10-02T23:42:20.766Z,7.88
2022-10-02T23:44:58.130Z,12.95
2022-10-02T23:47:29.291Z,8.95
2022-10-02T23:50:02.387Z,12.38
2022-10-02T23:52:33.276Z,7.10
2022-10-02T23:55:32.998Z,6.95
2022-10-02T23:58:15.927Z,10.60
